Latest Weather Observations for Warwick

IDQ60801

Issued at 8:05 pm EST Tuesday 21 October 2014 (issued every 30 minutes, with the page automatically refreshed every 10 minutes)

About weather observations | Map of weather stations | Latest weather observations for QLD | Other Formats
Station Details ID: 041525 Name: WARWICK Lat: -28.21 Lon: 152.10 Height: 475.4 m
Data from the previous 72 hours. | See also: Recent months at Warwick
Date/Time
EST
Temp
°C
App
Temp
°C
Dew
Point
Rel
Hum
%
Delta-T
°C
Wind Press
QNH
hPa
Press
MSL
hPa
Rain
since 9 am
mm
Dir
 
Spd
km/h
Gust
km/h
Spd
kts
Gust
kts
21/08:00pm 16.8 14.7 9.9 64 3.7 E 11 19 6 10 1027.5 1026.1 0.0
21/07:30pm 16.6 14.1 9.7 63 3.7 ESE 13 20 7 11 1027.1 1025.7 0.0
21/07:00pm 16.8 15.2 10.1 64 3.6 ESE 9 17 5 9 1026.9 1025.5 0.0
21/06:30pm 17.6 15.2 10.0 61 4.1 SE 13 24 7 13 1026.3 1024.9 0.0
21/06:00pm 18.7 16.3 10.0 57 4.7 ESE 13 22 7 12 1025.9 1024.5 0.0
21/05:30pm 19.9 17.5 10.0 53 5.4 SE 13 24 7 13 1025.5 1024.1 0.0
21/05:00pm 20.8 17.6 10.1 50 5.9 SE 17 28 9 15 1025.4 1024.0 0.0
21/04:30pm 21.2 17.5 10.1 49 6.1 SE 20 32 11 17 1025.1 1023.7 0.0
21/04:00pm 21.7 18.0 10.1 47 6.4 SE 20 37 11 20 1025.1 1023.7 0.0
21/03:30pm 21.7 18.1 10.4 48 6.3 SE 20 35 11 19 1025.0 1023.6 0.0
21/03:00pm 22.6 18.7 10.7 47 6.7 SE 22 33 12 18 1025.1 1023.7 0.0
21/02:30pm 23.1 19.5 10.6 45 7.1 SE 20 33 11 18 1025.2 1023.8 0.0
21/02:00pm 23.6 20.2 10.4 43 7.4 SE 19 37 10 20 1025.4 1024.0 0.0
21/01:30pm 24.0 20.3 10.0 41 7.9 SE 20 32 11 17 1025.7 1024.3 0.0
21/01:00pm 23.3 19.3 10.5 44 7.2 SSE 22 32 12 17 1026.0 1024.6 0.0
21/12:30pm 23.2 19.7 10.1 43 7.3 SE 19 32 10 17 1026.6 1025.2 0.0
21/12:00pm 22.7 19.7 10.6 46 6.8 SE 17 35 9 19 1027.0 1025.6 0.0
21/11:30am 22.4 18.8 10.6 47 6.6 SE 20 37 11 20 1027.4 1026.0 0.0
21/11:00am 21.7 17.7 10.3 48 6.3 SE 22 37 12 20 1027.7 1026.3 0.0
21/10:30am 20.8 16.4 10.3 51 5.8 SE 24 43 13 23 1028.1 1026.8 0.0
21/10:00am 20.8 17.0 11.2 54 5.4 SE 22 43 12 23 1028.1 1026.8 0.0
21/09:30am 20.6 16.8 11.3 55 5.2 SE 22 37 12 20 1028.1 1026.8 0.0
21/09:00am 20.0 16.1 10.8 55 5.1 SE 22 41 12 22 1028.1 1026.8 0.0
21/08:30am 19.1 15.1 11.8 62 4.1 SE 24 39 13 21 1028.1 1026.8 0.0
21/08:00am 18.1 14.5 11.8 66 3.5 SSE 22 32 12 17 1027.9 1026.5 0.0
21/07:30am 17.5 13.6 12.0 70 3.1 SE 24 37 13 20 1027.7 1026.3 0.0
21/07:00am 16.6 13.0 11.9 74 2.6 SE 22 33 12 18 1027.5 1026.1 0.0
21/06:30am 16.0 12.8 12.0 77 2.2 SE 20 35 11 19 1027.2 1025.8 0.0
21/06:00am 15.7 11.8 12.1 79 2.0 SE 24 33 13 18 1026.9 1025.5 0.0
21/05:30am 15.7 12.6 12.3 80 1.9 SE 20 30 11 16 1026.6 1025.2 0.0
21/05:00am 15.6 12.7 12.8 83 1.6 SE 20 32 11 17 1026.3 1024.9 0.0
21/04:30am 15.6 13.2 12.8 83 1.6 SE 17 26 9 14 1026.2 1024.7 0.0
21/04:00am 15.7 12.8 12.9 83 1.6 SE 20 30 11 16 1025.8 1024.4 0.0
21/03:30am 16.3 13.9 12.6 79 2.1 SE 17 26 9 14 1025.7 1024.3 0.0
21/03:00am 16.6 13.6 12.1 75 2.5 SE 19 30 10 16 1025.7 1024.3 0.0
21/02:30am 16.8 14.2 12.0 73 2.7 SE 17 26 9 14 1025.7 1024.3 0.0
21/02:00am 16.9 13.7 11.3 69 3.1 SE 19 32 10 17 1025.5 1024.1 0.0
21/01:30am 17.0 14.2 11.2 68 3.2 SE 17 24 9 13 1025.8 1024.4 0.0
21/01:00am 17.0 13.8 11.2 68 3.2 SE 19 30 10 16 1026.0 1024.6 0.0
21/12:30am 16.8 14.3 11.2 69 3.1 SE 15 22 8 12 1026.4 1025.0 0.0
21/12:00am 16.7 13.4 11.0 69 3.1 SE 19 24 10 13 1026.6 1025.2 0.0
 
Date/Time
EST
Temp
°C
App
Temp
°C
Dew
Point
Rel
Hum
%
Delta-T
°C
Wind Press
QNH
hPa
Press
MSL
hPa
Rain
since 9 am
mm
Dir
 
Spd
km/h
Gust
km/h
Spd
kts
Gust
kts
20/11:30pm 16.8 14.4 11.4 70 3.0 SE 15 26 8 14 1026.8 1025.4 0.0
20/11:00pm 17.0 14.7 11.8 71 2.9 SE 15 24 8 13 1027.1 1025.7 0.0
20/10:30pm 17.3 14.7 11.9 70 3.0 SE 17 30 9 16 1027.0 1025.6 0.0
20/10:00pm 17.6 14.6 11.9 69 3.2 SE 19 32 10 17 1027.0 1025.6 0.0
20/09:30pm 18.4 15.6 11.4 63 3.9 SE 17 30 9 16 1027.0 1025.6 0.0
20/09:00pm 18.1 15.6 11.2 64 3.8 ESE 15 24 8 13 1026.8 1025.4 0.0
20/08:30pm 18.2 15.3 11.1 63 3.9 ESE 17 35 9 19 1026.8 1025.4 0.0
20/08:00pm 18.4 15.1 11.0 62 4.1 ESE 19 33 10 18 1026.6 1025.2 0.0
20/07:30pm 19.0 16.3 10.4 57 4.7 ESE 15 32 8 17 1026.0 1024.6 0.0
20/07:00pm 20.2 16.5 9.3 49 5.9 ESE 19 33 10 18 1025.1 1023.7 0.0
20/06:30pm 21.6 18.2 7.8 41 7.3 ESE 15 26 8 14 1024.5 1023.1 0.0
20/06:00pm 23.1 19.7 9.3 41 7.6 ESE 17 35 9 19 1023.5 1022.1 0.0
20/05:30pm 24.9 21.4 8.9 36 8.8 E 17 28 9 15 1022.9 1021.5 0.0
20/05:00pm 25.9 22.2 7.9 32 9.8 ESE 17 28 9 15 1022.4 1020.9 0.0
20/04:30pm 27.5 23.5 8.1 29 10.7 ESE 19 37 10 20 1022.2 1020.7 0.0
20/04:00pm 28.4 24.1 7.1 26 11.6 ESE 19 32 10 17 1021.7 1020.2 0.0
20/03:30pm 28.9 24.8 8.0 27 11.6 E 19 35 10 19 1021.2 1019.8 0.0
20/03:00pm 29.5 25.5 8.4 26 11.8 ESE 19 30 10 16 1021.1 1019.7 0.0
20/02:30pm 29.9 24.5 6.2 22 12.8 SSE 24 39 13 21 1021.2 1019.8 0.0
20/02:00pm 31.0 25.5 4.2 18 14.1 SE 22 56 12 30 1021.1 1019.7 0.0
20/01:30pm 30.6 26.2 6.6 22 13.1 SSE 19 33 10 18 1021.4 1020.0 0.0
20/01:00pm 30.0 25.7 5.2 21 13.2 SE 17 30 9 16 1021.9 1020.4 0.0
20/12:30pm 28.6 25.8 8.5 28 11.2 SSW 13 20 7 11 1022.6 1021.2 0.0
20/12:00pm 28.1 26.2 9.0 30 10.7 S 9 33 5 18 1023.2 1021.8 0.0
20/11:30am 25.8 24.2 10.3 37 8.8 S 9 19 5 10 1023.7 1022.3 0.0
20/11:00am 25.0 24.6 9.6 37 8.6 ESE 2 9 1 5 1024.4 1023.0 0.0
20/10:30am 24.0 22.5 10.5 42 7.6 WSW 9 13 5 7 1024.8 1023.4 0.0
20/10:00am 22.1 20.5 8.8 42 7.2 WNW 7 17 4 9 1025.4 1024.0 0.0
20/09:30am 21.1 19.3 9.6 47 6.3 W 9 15 5 8 1025.6 1024.2 0.0
20/09:00am 19.9 18.1 9.6 51 5.6 W 9 13 5 7 1026.0 1024.6 0.0
20/08:30am 18.4 17.2 10.3 59 4.4 WSW 7 11 4 6 1026.0 1024.6 0.0
20/08:00am 16.9 15.8 9.8 63 3.8 SSW 6 11 3 6 1026.0 1024.6 0.0
20/07:30am 15.0 14.9 9.5 69 2.9 CALM 0 0 0 0 1025.9 1024.5 0.0
20/07:00am 13.2 12.9 8.7 74 2.3 CALM 0 0 0 0 1025.9 1024.5 0.0
20/06:30am 12.1 11.7 8.3 77 1.9 CALM 0 0 0 0 1025.7 1024.3 0.0
20/06:00am 9.6 8.9 7.1 84 1.2 CALM 0 0 0 0 1025.6 1024.2 0.0
20/05:30am 7.8 7.0 6.3 90 0.7 CALM 0 0 0 0 1025.3 1023.9 0.0
20/05:00am 8.3 7.4 6.2 87 1.0 CALM 0 0 0 0 1025.1 1023.7 0.0
20/04:30am 9.4 8.8 7.3 87 1.0 CALM 0 0 0 0 1025.0 1023.6 0.0
20/04:00am 9.3 8.6 6.8 84 1.2 CALM 0 0 0 0 1024.9 1023.5 0.0
20/03:30am 10.3 9.9 8.1 86 1.1 CALM 0 0 0 0 1025.0 1023.6 0.0
20/03:00am 10.2 9.7 8.0 86 1.1 CALM 0 0 0 0 1024.9 1023.5 0.0
20/02:30am 10.6 10.2 8.4 86 1.1 CALM 0 0 0 0 1024.9 1023.5 0.0
20/02:00am 11.0 10.6 8.2 83 1.4 CALM 0 0 0 0 1025.0 1023.6 0.0
20/01:30am 12.3 10.7 8.1 75 2.1 NNE 6 9 3 5 1025.3 1023.9 0.0
20/01:00am 10.9 10.4 7.9 82 1.5 CALM 0 0 0 0 1025.6 1024.2 0.0
20/12:30am 12.3 12.1 9.0 80 1.7 CALM 0 0 0 0 1025.8 1024.4 0.0
20/12:00am 12.7 11.6 8.4 75 2.2 NNE 4 7 2 4 1026.3 1024.9 0.0
 
Date/Time
EST
Temp
°C
App
Temp
°C
Dew
Point
Rel
Hum
%
Delta-T
°C
Wind Press
QNH
hPa
Press
MSL
hPa
Rain
since 9 am
mm
Dir
 
Spd
km/h
Gust
km/h
Spd
kts
Gust
kts
19/11:30pm 13.2 11.3 8.9 75 2.2 NE 9 13 5 7 1026.3 1024.9 0.0
19/11:00pm 14.0 12.7 9.2 73 2.5 E 6 9 3 5 1026.5 1025.1 0.0
19/10:30pm 14.8 13.0 9.5 70 2.8 ENE 9 15 5 8 1026.5 1025.1 0.0
19/10:00pm 15.2 13.8 9.5 69 3.0 E 7 11 4 6 1026.5 1025.1 0.0
19/09:30pm 16.2 15.1 9.8 66 3.4 ENE 6 9 3 5 1026.4 1025.0 0.0
19/09:00pm 16.5 14.8 10.0 65 3.5 ENE 9 13 5 7 1025.9 1024.5 0.0
19/08:30pm 17.4 13.9 8.9 57 4.5 NNE 17 20 9 11 1025.6 1024.2 0.0
19/08:00pm 18.2 14.0 9.6 57 4.6 NE 22 30 12 16 1024.8 1023.4 0.0
19/07:30pm 19.2 14.8 8.9 51 5.5 NE 22 28 12 15 1024.7 1023.3 0.0
19/07:00pm 18.2 15.3 6.6 46 5.9 NE 11 13 6 7 1024.2 1022.7 0.0
19/06:30pm 19.2 15.9 2.7 33 7.8 NNE 9 11 5 6 1023.8 1022.4 0.0
19/06:00pm 22.3 19.2 5.4 33 8.6 E 11 19 6 10 1023.5 1022.1 0.0
19/05:30pm 23.9 21.1 5.2 30 9.6 ESE 9 19 5 10 1023.1 1021.7 0.0
19/05:00pm 24.9 21.2 4.2 26 10.5 SE 13 20 7 11 1022.9 1021.5 0.0
19/04:30pm 25.5 21.7 4.0 25 10.9 ESE 13 20 7 11 1022.7 1021.3 0.0
19/04:00pm 25.6 21.5 4.2 25 10.9 ESE 15 26 8 14 1022.7 1021.3 0.0
19/03:30pm 26.0 22.1 5.2 26 10.8 ESE 15 26 8 14 1022.7 1021.3 0.0
19/03:00pm 26.0 21.1 4.3 24 11.1 SE 19 26 10 14 1022.9 1021.5 0.0
19/02:30pm 25.7 22.2 5.3 27 10.6 S 13 26 7 14 1023.1 1021.7 0.0
19/02:00pm 25.5 21.4 6.1 29 10.2 SSE 17 30 9 16 1023.6 1022.2 0.0
19/01:30pm 24.8 21.8 7.5 33 9.3 SSE 13 20 7 11 1024.2 1022.7 0.0
19/01:00pm 24.3 21.1 8.3 36 8.7 S 15 22 8 12 1024.9 1023.5 0.0
19/12:30pm 23.3 20.9 8.5 38 8.1 ESE 11 20 6 11 1025.4 1024.0 0.0
19/12:00pm 22.9 19.6 8.2 39 7.9 SSE 15 24 8 13 1025.9 1024.5 0.0
19/11:30am 22.3 19.5 8.6 41 7.4 SSE 13 20 7 11 1026.5 1025.1 0.0
19/11:00am 22.7 19.3 7.6 38 8.0 SSE 15 24 8 13 1026.7 1025.3 0.0
19/10:30am 21.6 18.9 8.8 44 6.9 SE 13 22 7 12 1027.2 1025.8 0.0
19/10:00am 21.8 18.6 8.6 42 7.1 SSE 15 28 8 15 1027.6 1026.2 0.0
19/09:30am 20.5 17.6 8.2 45 6.6 SE 13 20 7 11 1028.0 1026.7 0.0
19/09:00am 20.5 17.6 8.2 45 6.5 SSE 13 22 7 12 1028.1 1026.8 0.0
19/08:30am 18.9 16.0 8.0 49 5.7 E 13 20 7 11 1028.2 1026.9 0.0
19/08:00am 18.0 15.7 8.9 55 4.8 ESE 11 15 6 8 1028.2 1026.9 0.0
19/07:30am 17.2 15.5 9.9 62 3.9 ESE 9 15 5 8 1028.1 1026.8 0.0
19/07:00am 15.3 13.7 10.2 71 2.7 SE 9 15 5 8 1027.9 1026.5 0.0
19/06:30am 12.9 11.5 9.6 80 1.7 ENE 7 9 4 5 1027.6 1026.2 0.0
19/06:00am 11.2 9.7 9.2 87 1.0 NE 7 9 4 5 1027.3 1025.9 0.0
19/05:30am 9.5 7.7 8.1 91 0.7 NE 7 9 4 5 1027.2 1025.8 0.0
19/05:00am 9.8 8.2 8.6 92 0.6 NE 7 11 4 6 1026.9 1025.5 0.0
19/04:30am 9.7 8.0 8.5 92 0.6 NE 7 9 4 5 1026.6 1025.2 0.0
19/04:00am 9.6 8.0 8.6 93 0.5 NE 7 11 4 6 1026.3 1024.9 0.0
19/03:30am 10.1 8.4 8.3 88 0.9 NE 7 9 4 5 1026.3 1024.9 0.0
19/03:00am 9.9 8.4 8.3 90 0.8 NE 6 9 3 5 1026.2 1024.7 0.0
19/02:30am 10.2 8.7 8.4 89 0.9 NE 6 9 3 5 1026.3 1024.9 0.0
19/02:00am 10.6 9.0 8.6 87 1.0 NE 7 9 4 5 1026.3 1024.9 0.0
19/01:30am 10.9 9.3 8.9 87 1.0 ENE 7 11 4 6 1026.4 1025.0 0.0
19/01:00am 11.3 9.7 8.9 85 1.2 NE 7 9 4 5 1026.8 1025.4 0.0
19/12:30am 11.5 10.6 9.4 87 1.1 ESE 4 9 2 5 1027.1 1025.7 0.0
19/12:00am 11.4 9.8 8.8 84 1.3 NE 7 9 4 5 1027.2 1025.8 0.0
 
Date/Time
EST
Temp
°C
App
Temp
°C
Dew
Point
Rel
Hum
%
Delta-T
°C
Wind Press
QNH
hPa
Press
MSL
hPa
Rain
since 9 am
mm
Dir
 
Spd
km/h
Gust
km/h
Spd
kts
Gust
kts
18/11:30pm 12.0 10.5 9.1 82 1.5 ENE 7 13 4 7 1027.5 1026.1 0.0
18/11:00pm 11.9 11.2 8.7 81 1.6 ESE 2 7 1 4 1027.7 1026.3 0.0
18/10:30pm 13.1 11.9 9.4 78 1.9 SE 6 11 3 6 1027.8 1026.4 0.0
18/10:00pm 14.1 12.0 9.9 76 2.2 SE 11 17 6 9 1027.6 1026.2 0.0
18/09:30pm 14.5 11.7 10.0 74 2.4 SSE 15 20 8 11 1027.6 1026.2 0.0
18/09:00pm 14.9 12.9 10.2 73 2.5 SSE 11 17 6 9 1027.4 1026.0 0.0
18/08:30pm 15.5 13.1 9.9 69 3.0 SSE 13 20 7 11 1027.0 1025.6 0.0

Other Formats:

Comma delimited format used in spreadsheet applications
http://www.bom.gov.au/fwo/IDQ60801/IDQ60801.94555.axf

JavaScript Object Notation format (JSON) in row-major order
http://www.bom.gov.au/fwo/IDQ60801/IDQ60801.94555.json